createdAt,value
2019-03-21T00:00:12.944Z,76.73
2019-03-21T00:00:53.501Z,77.01
2019-03-21T00:01:34.113Z,77.01
2019-03-21T00:02:14.702Z,77.11
2019-03-21T00:02:55.252Z,77.11
2019-03-21T00:03:35.824Z,77.11
2019-03-21T00:04:16.384Z,77.4
2019-03-21T00:04:56.941Z,77.49
2019-03-21T00:05:37.510Z,77.59
2019-03-21T00:06:18.071Z,77.4
2019-03-21T00:06:58.657Z,77.59
2019-03-21T00:07:39.215Z,77.49
2019-03-21T00:08:19.787Z,77.4
2019-03-21T00:09:00.375Z,77.2
2019-03-21T00:09:40.962Z,77.4
2019-03-21T00:10:21.573Z,77.3
2019-03-21T00:11:02.165Z,77.4
2019-03-21T00:11:42.726Z,77.2
2019-03-21T00:12:23.324Z,77.4
2019-03-21T00:13:03.889Z,77.3
2019-03-21T00:13:44.479Z,77.2
2019-03-21T00:14:25.050Z,77.4
2019-03-21T00:15:05.614Z,77.4
2019-03-21T00:15:46.179Z,77.3
2019-03-21T00:16:26.735Z,77.3
2019-03-21T00:17:07.328Z,77.11
2019-03-21T00:17:47.895Z,77.01
2019-03-21T00:18:28.457Z,77.4
2019-03-21T00:19:09.024Z,77.4
2019-03-21T00:19:49.643Z,77.4
2019-03-21T00:20:30.293Z,77.4
2019-03-21T00:21:10.859Z,77.3
2019-03-21T00:21:51.415Z,77.59
2019-03-21T00:22:31.994Z,77.69
2019-03-21T00:23:12.542Z,77.69
2019-03-21T00:23:53.107Z,78.16
2019-03-21T00:24:33.677Z,78.06
2019-03-21T00:25:14.237Z,77.87
2019-03-21T00:25:54.832Z,77.69
2019-03-21T00:26:35.410Z,78.16
2019-03-21T00:27:15.979Z,77.97
2019-03-21T00:27:56.552Z,78.06
2019-03-21T00:28:37.110Z,78.16
2019-03-21T00:29:17.676Z,77.87
2019-03-21T00:29:58.234Z,78.16
2019-03-21T00:30:38.838Z,77.97
2019-03-21T00:31:19.389Z,78.44
2019-03-21T00:31:59.959Z,77.97
2019-03-21T00:32:40.511Z,77.78
2019-03-21T00:33:21.147Z,77.78
2019-03-21T00:34:01.683Z,78.35
2019-03-21T00:34:42.345Z,78.35
2019-03-21T00:35:22.890Z,78.25
2019-03-21T00:36:03.450Z,78.35
2019-03-21T00:36:44.016Z,78.06
2019-03-21T00:37:24.589Z,77.87
2019-03-21T00:38:05.156Z,78.44
2019-03-21T00:38:45.826Z,78.25
2019-03-21T00:39:32.581Z,78.35
2019-03-21T00:40:06.873Z,78.25
2019-03-21T00:40:47.432Z,78.16
2019-03-21T00:41:28.000Z,78.16
2019-03-21T00:42:08.565Z,78.35
2019-03-21T00:42:49.127Z,78.16
2019-03-21T00:43:29.829Z,78.16
2019-03-21T00:44:18.005Z,78.16
2019-03-21T00:44:51.007Z,78.06
2019-03-21T00:45:31.546Z,78.35
2019-03-21T00:46:12.105Z,78.35
2019-03-21T00:46:52.673Z,78.54
2019-03-21T00:47:33.248Z,78.35
2019-03-21T00:48:13.847Z,78.16
2019-03-21T00:48:54.406Z,78.54
2019-03-21T00:49:34.969Z,78.64
2019-03-21T00:50:15.515Z,78.73
2019-03-21T00:50:56.081Z,78.92
2019-03-21T00:51:36.682Z,78.64
2019-03-21T00:52:17.255Z,78.73
2019-03-21T00:52:57.805Z,78.54
2019-03-21T00:53:38.416Z,78.44
2019-03-21T00:54:18.975Z,78.64
2019-03-21T00:54:59.569Z,78.73
2019-03-21T00:55:40.129Z,78.64
2019-03-21T00:56:20.688Z,78.73
2019-03-21T00:57:01.241Z,78.73
2019-03-21T00:57:41.793Z,78.73
2019-03-21T00:58:22.355Z,78.64
2019-03-21T00:59:02.914Z,78.44
2019-03-21T00:59:43.516Z,78.54
2019-03-21T01:00:24.098Z,79.11
2019-03-21T01:01:04.655Z,79.21
2019-03-21T01:01:45.214Z,79.02
2019-03-21T01:02:25.781Z,79.11
2019-03-21T01:03:06.351Z,78.83
2019-03-21T01:03:46.906Z,79.02
2019-03-21T01:04:27.511Z,79.11
2019-03-21T01:05:08.082Z,79.4
2019-03-21T01:05:48.635Z,79.3
2019-03-21T01:06:29.231Z,79.21
2019-03-21T01:07:09.792Z,79.21
2019-03-21T01:07:50.354Z,79.11
2019-03-21T01:08:30.928Z,79.21
2019-03-21T01:09:11.526Z,78.92
2019-03-21T01:09:52.076Z,79.02
2019-03-21T01:10:32.643Z,79.02
2019-03-21T01:11:13.215Z,79.11
2019-03-21T01:11:53.786Z,78.92
2019-03-21T01:12:34.349Z,78.83
2019-03-21T01:13:14.926Z,79.02
2019-03-21T01:13:55.487Z,79.21
2019-03-21T01:14:36.067Z,79.21
2019-03-21T01:15:16.638Z,79.3
2019-03-21T01:15:57.201Z,79.3
2019-03-21T01:16:37.792Z,79.21
2019-03-21T01:17:18.357Z,79.3
2019-03-21T01:17:58.918Z,79.3
2019-03-21T01:18:39.476Z,79.21
2019-03-21T01:19:20.062Z,79.3
2019-03-21T01:20:00.611Z,79.4
2019-03-21T01:20:41.174Z,79.49
2019-03-21T01:21:21.753Z,79.21
2019-03-21T01:22:02.343Z,79.3
2019-03-21T01:22:42.898Z,79.3
2019-03-21T01:23:23.472Z,79.3
2019-03-21T01:24:04.033Z,79.4
2019-03-21T01:24:44.605Z,79.4
2019-03-21T01:25:25.157Z,79.3
2019-03-21T01:26:05.733Z,79.21
2019-03-21T01:26:46.287Z,79.59
2019-03-21T01:27:26.851Z,79.3
2019-03-21T01:28:07.416Z,79.68
2019-03-21T01:28:47.972Z,79.88
2019-03-21T01:29:28.543Z,79.78
2019-03-21T01:30:09.106Z,79.49
2019-03-21T01:30:49.682Z,79.49
2019-03-21T01:31:30.273Z,79.68
2019-03-21T01:32:10.858Z,79.78
2019-03-21T01:32:51.421Z,79.78
2019-03-21T01:33:32.001Z,79.78
2019-03-21T01:34:12.569Z,80.54
2019-03-21T01:34:53.137Z,80.07
2019-03-21T01:35:33.702Z,80.26
2019-03-21T01:36:14.271Z,80.16
2019-03-21T01:36:54.834Z,80.35
2019-03-21T01:37:35.397Z,80.16
2019-03-21T01:38:15.990Z,80.35
2019-03-21T01:38:56.552Z,80.35
2019-03-21T01:39:37.115Z,80.16
2019-03-21T01:40:17.667Z,80.35
2019-03-21T01:40:58.235Z,80.35
2019-03-21T01:41:38.818Z,80.35
2019-03-21T01:42:19.399Z,80.35
2019-03-21T01:42:59.957Z,80.44
2019-03-21T01:43:40.534Z,80.26
2019-03-21T01:44:21.101Z,80.35
2019-03-21T01:45:01.668Z,80.26
2019-03-21T01:45:42.224Z,80.44
2019-03-21T01:46:22.824Z,80.44
2019-03-21T01:47:03.385Z,80.35
2019-03-21T01:47:43.961Z,80.44
2019-03-21T01:48:24.540Z,80.26
2019-03-21T01:49:05.107Z,80.26
2019-03-21T01:49:45.665Z,80.26
2019-03-21T01:50:26.259Z,80.35
2019-03-21T01:51:06.817Z,80.35
2019-03-21T01:51:47.389Z,80.35
2019-03-21T01:52:27.954Z,80.44
2019-03-21T01:53:08.543Z,80.54
2019-03-21T01:53:49.144Z,80.26
2019-03-21T01:54:29.791Z,80.16
2019-03-21T01:55:11.401Z,80.44
2019-03-21T01:55:50.926Z,80.26
2019-03-21T01:56:31.499Z,80.26
2019-03-21T01:57:12.561Z,80.64
2019-03-21T01:57:53.120Z,80.73
2019-03-21T01:58:33.685Z,80.73
2019-03-21T01:59:14.272Z,80.64
2019-03-21T01:59:54.829Z,80.73
2019-03-21T02:00:35.422Z,80.64
2019-03-21T02:01:15.979Z,80.44
2019-03-21T02:01:56.532Z,80.44
2019-03-21T02:02:37.100Z,80.16
2019-03-21T02:03:17.668Z,80.16
2019-03-21T02:03:58.231Z,80.16
2019-03-21T02:04:38.792Z,80.64
2019-03-21T02:05:19.357Z,80.64
2019-03-21T02:05:59.913Z,80.64
2019-03-21T02:06:40.484Z,80.73
2019-03-21T02:07:21.048Z,80.64
2019-03-21T02:08:01.603Z,80.35
2019-03-21T02:08:42.168Z,80.35
2019-03-21T02:09:22.739Z,80.54
2019-03-21T02:10:03.307Z,80.92
2019-03-21T02:10:43.869Z,80.64
2019-03-21T02:11:24.419Z,80.92
2019-03-21T02:12:04.993Z,80.54
2019-03-21T02:12:45.549Z,80.54
2019-03-21T02:13:26.103Z,80.64
2019-03-21T02:14:06.681Z,80.26
2019-03-21T02:14:51.951Z,80.44
2019-03-21T02:15:27.848Z,80.44
2019-03-21T02:16:08.406Z,81.02
2019-03-21T02:16:48.988Z,80.92
2019-03-21T02:17:29.550Z,81.12
2019-03-21T02:18:10.131Z,81.21
2019-03-21T02:18:50.692Z,81.21
2019-03-21T02:19:31.262Z,81.02
2019-03-21T02:20:11.832Z,80.83
2019-03-21T02:20:52.405Z,81.49
2019-03-21T02:21:32.975Z,81.3
2019-03-21T02:22:13.543Z,81.97
2019-03-21T02:22:54.119Z,81.59
2019-03-21T02:23:34.684Z,81.46
2019-03-21T02:24:15.247Z,82.03
2019-03-21T02:24:55.799Z,82.21
2019-03-21T02:25:36.364Z,82.6
2019-03-21T02:26:16.917Z,82.21
2019-03-21T02:26:57.485Z,81.93
2019-03-21T02:27:38.044Z,81.84
2019-03-21T02:28:18.596Z,82.31
2019-03-21T02:28:59.150Z,82.69
2019-03-21T02:29:39.800Z,82.89
2019-03-21T02:30:20.356Z,82.21
2019-03-21T02:31:00.929Z,82.31
2019-03-21T02:31:41.506Z,82.31
2019-03-21T02:32:22.062Z,82.98
2019-03-21T02:33:02.629Z,82.21
2019-03-21T02:33:43.197Z,82.31
2019-03-21T02:34:23.764Z,82.31
2019-03-21T02:35:04.322Z,82.31
2019-03-21T02:35:44.881Z,82.26
2019-03-21T02:36:25.435Z,82.5
2019-03-21T02:37:06.007Z,82.89
2019-03-21T02:37:46.570Z,82.21
2019-03-21T02:38:27.166Z,82.54
2019-03-21T02:39:07.720Z,82.41
2019-03-21T02:39:58.460Z,82.26
2019-03-21T02:40:28.888Z,82.17
2019-03-21T02:41:09.495Z,82.12
2019-03-21T02:41:50.054Z,82.35
2019-03-21T02:42:30.634Z,82.54
2019-03-21T02:43:11.196Z,82.64
2019-03-21T02:43:51.787Z,82.54
2019-03-21T02:44:32.365Z,82.45
2019-03-21T02:45:12.970Z,82.35
2019-03-21T02:45:53.488Z,82.54
2019-03-21T02:46:34.059Z,82.54
2019-03-21T02:47:14.608Z,82.35
2019-03-21T02:47:55.162Z,82.64
2019-03-21T02:48:35.713Z,82.31
2019-03-21T02:49:16.299Z,82.45
2019-03-21T02:49:56.837Z,82.41
2019-03-21T02:50:37.389Z,82.41
2019-03-21T02:51:17.970Z,82.35
2019-03-21T02:51:58.528Z,82.5
2019-03-21T02:52:39.084Z,82.83
2019-03-21T02:53:19.652Z,82.98
2019-03-21T02:54:00.211Z,82.41
2019-03-21T02:54:40.760Z,82.6
2019-03-21T02:55:21.426Z,82.31
2019-03-21T02:56:01.939Z,82.41
2019-03-21T02:56:42.495Z,83.17
2019-03-21T02:57:23.073Z,82.6
2019-03-21T02:58:03.645Z,82.21
2019-03-21T02:58:44.200Z,82.64
2019-03-21T02:59:24.756Z,82.21
2019-03-21T03:00:05.304Z,82.6
2019-03-21T03:00:45.864Z,82.6
2019-03-21T03:01:26.459Z,82.31
2019-03-21T03:02:07.020Z,82.31
2019-03-21T03:02:47.577Z,82.54
2019-03-21T03:03:28.137Z,82.31
2019-03-21T03:04:08.768Z,82.26
2019-03-21T03:04:49.338Z,82.41
2019-03-21T03:05:29.894Z,82.31
2019-03-21T03:06:10.455Z,82.73
2019-03-21T03:06:51.021Z,82.41
2019-03-21T03:07:31.586Z,82.41
2019-03-21T03:08:12.154Z,82.6
2019-03-21T03:08:52.734Z,82.12
2019-03-21T03:09:33.327Z,82.79
2019-03-21T03:10:13.866Z,82.21
2019-03-21T03:10:54.430Z,82.31
2019-03-21T03:11:34.993Z,82.5
2019-03-21T03:12:15.556Z,82.54
2019-03-21T03:12:56.142Z,82.5
2019-03-21T03:13:36.734Z,82.31
2019-03-21T03:14:17.284Z,82.98
2019-03-21T03:14:57.847Z,83.07
2019-03-21T03:15:38.408Z,82.79
2019-03-21T03:16:18.977Z,82.89
2019-03-21T03:16:59.506Z,82.6
2019-03-21T03:17:40.068Z,82.69
2019-03-21T03:18:20.630Z,82.79
2019-03-21T03:19:01.189Z,82.79
2019-03-21T03:19:41.775Z,82.79
2019-03-21T03:20:22.310Z,82.41
2019-03-21T03:21:02.871Z,82.89
2019-03-21T03:21:43.455Z,82.98
2019-03-21T03:22:24.062Z,82.89
2019-03-21T03:23:04.609Z,82.98
2019-03-21T03:23:45.163Z,82.89
2019-03-21T03:24:25.734Z,82.98
2019-03-21T03:25:06.288Z,82.69
2019-03-21T03:25:50.243Z,82.98
2019-03-21T03:26:27.434Z,82.69
2019-03-21T03:27:07.985Z,82.89
2019-03-21T03:27:48.551Z,82.89
2019-03-21T03:28:29.152Z,82.89
2019-03-21T03:29:09.699Z,82.31
2019-03-21T03:29:50.267Z,82.12
2019-03-21T03:30:30.822Z,82.41
2019-03-21T03:31:11.398Z,82.31
2019-03-21T03:31:51.969Z,82.89
2019-03-21T03:32:32.548Z,82.54
2019-03-21T03:33:13.109Z,82.69
2019-03-21T03:33:53.668Z,82.5
2019-03-21T03:34:34.243Z,82.5
2019-03-21T03:35:14.803Z,82.73
2019-03-21T03:35:55.349Z,82.45
2019-03-21T03:36:35.959Z,82.5
2019-03-21T03:37:16.523Z,82.5
2019-03-21T03:37:57.103Z,82.41
2019-03-21T03:38:37.673Z,82.69
2019-03-21T03:39:18.235Z,82.41
2019-03-21T03:39:58.809Z,82.41
2019-03-21T03:40:39.401Z,82.5
2019-03-21T03:41:19.989Z,82.69
2019-03-21T03:42:00.516Z,82.69
2019-03-21T03:42:41.127Z,82.5
2019-03-21T03:43:21.705Z,82.6
2019-03-21T03:44:02.255Z,82.41
2019-03-21T03:44:42.813Z,82.98
2019-03-21T03:45:36.533Z,82.89
2019-03-21T03:46:03.976Z,82.89
2019-03-21T03:46:44.533Z,82.89
2019-03-21T03:47:25.116Z,82.41
2019-03-21T03:48:05.698Z,82.6
2019-03-21T03:48:46.304Z,82.21
2019-03-21T03:49:26.904Z,82.98
2019-03-21T03:50:07.483Z,82.69
2019-03-21T03:50:48.052Z,82.98
2019-03-21T03:51:28.626Z,82.89
2019-03-21T03:52:09.202Z,82.89
2019-03-21T03:52:49.765Z,82.98
2019-03-21T03:53:30.338Z,82.89
2019-03-21T03:54:10.898Z,82.98
2019-03-21T03:54:51.457Z,82.5
2019-03-21T03:55:32.029Z,82.98
2019-03-21T03:56:12.600Z,82.98
2019-03-21T03:56:53.161Z,82.69
2019-03-21T03:57:34.205Z,82.98
2019-03-21T03:58:14.774Z,82.5
2019-03-21T03:58:55.339Z,82.5
2019-03-21T03:59:35.896Z,82.98
2019-03-21T04:00:16.461Z,82.5
2019-03-21T04:00:57.021Z,82.41
2019-03-21T04:01:37.579Z,82.41
2019-03-21T04:02:18.149Z,82.5
2019-03-21T04:02:58.742Z,82.69
2019-03-21T04:03:39.335Z,82.5
2019-03-21T04:04:19.921Z,82.69
2019-03-21T04:05:00.523Z,82.69
2019-03-21T04:05:41.076Z,82.5
2019-03-21T04:06:21.629Z,82.41
2019-03-21T04:07:02.222Z,82.41
2019-03-21T04:07:42.783Z,82.69
2019-03-21T04:08:23.352Z,82.5
2019-03-21T04:09:03.902Z,82.69
2019-03-21T04:09:44.473Z,82.5
2019-03-21T04:10:25.022Z,82.21
2019-03-21T04:11:05.587Z,82.12
2019-03-21T04:11:46.148Z,82.21
2019-03-21T04:12:26.711Z,82.21
2019-03-21T04:13:07.276Z,82.21
2019-03-21T04:13:47.818Z,82.5
2019-03-21T04:14:28.395Z,82.41
2019-03-21T04:15:08.953Z,82.21
2019-03-21T04:15:52.882Z,82.31
2019-03-21T04:16:30.108Z,82.12
2019-03-21T04:17:10.669Z,81.93
2019-03-21T04:17:51.224Z,81.84
2019-03-21T04:18:31.782Z,81.93
2019-03-21T04:19:12.321Z,81.93
2019-03-21T04:19:52.888Z,82.21
2019-03-21T04:20:33.447Z,82.21
2019-03-21T04:21:14.020Z,82.21
2019-03-21T04:21:54.619Z,82.6
2019-03-21T04:22:35.189Z,82.5
2019-03-21T04:23:15.748Z,82.5
2019-03-21T04:23:59.448Z,82.41
2019-03-21T04:24:36.881Z,82.5
2019-03-21T04:25:17.463Z,82.5
2019-03-21T04:25:58.044Z,82.12
2019-03-21T04:26:38.585Z,82.21
2019-03-21T04:27:19.146Z,82.41
2019-03-21T04:27:59.734Z,81.93
2019-03-21T04:28:40.304Z,81.74
2019-03-21T04:29:20.863Z,81.74
2019-03-21T04:30:01.441Z,81.46
2019-03-21T04:30:42.026Z,81.74
2019-03-21T04:31:22.566Z,81.93
2019-03-21T04:32:03.143Z,81.74
2019-03-21T04:32:43.715Z,81.74
2019-03-21T04:33:24.259Z,81.46
2019-03-21T04:34:04.809Z,81.65
2019-03-21T04:34:45.372Z,81.65
2019-03-21T04:35:25.928Z,81.65
2019-03-21T04:36:06.475Z,81.84
2019-03-21T04:36:47.030Z,81.55
2019-03-21T04:37:27.611Z,81.46
2019-03-21T04:38:08.181Z,81.55
2019-03-21T04:38:48.741Z,81.74
2019-03-21T04:39:29.307Z,81.74
2019-03-21T04:40:09.861Z,81.74
2019-03-21T04:40:50.426Z,81.55
2019-03-21T04:41:30.983Z,81.93
2019-03-21T04:42:11.547Z,81.55
2019-03-21T04:42:52.102Z,81.65
2019-03-21T04:43:32.673Z,81.65
2019-03-21T04:44:13.246Z,81.74
2019-03-21T04:44:53.800Z,81.74
2019-03-21T04:45:34.371Z,82.03
2019-03-21T04:46:14.961Z,81.93
2019-03-21T04:46:55.560Z,81.74
2019-03-21T04:47:36.128Z,81.65
2019-03-21T04:48:16.683Z,81.65
2019-03-21T04:48:57.257Z,81.65
2019-03-21T04:49:37.825Z,82.03
2019-03-21T04:50:18.393Z,81.46
2019-03-21T04:50:58.954Z,81.74
2019-03-21T04:51:39.522Z,81.55
2019-03-21T04:52:20.075Z,81.55
2019-03-21T04:53:00.623Z,82.03
2019-03-21T04:53:41.193Z,81.74
2019-03-21T04:54:21.781Z,82.21
2019-03-21T04:55:02.335Z,81.93
2019-03-21T04:55:42.909Z,81.74
2019-03-21T04:56:23.491Z,81.46
2019-03-21T04:57:04.060Z,81.93
2019-03-21T04:57:44.610Z,82.03
2019-03-21T04:58:25.227Z,81.93
2019-03-21T04:59:05.790Z,81.93
2019-03-21T04:59:46.354Z,82.31
2019-03-21T05:00:26.926Z,81.93
2019-03-21T05:01:07.589Z,81.93
2019-03-21T05:01:48.142Z,82.07
2019-03-21T05:02:28.706Z,82.31
2019-03-21T05:03:09.261Z,81.93
2019-03-21T05:03:49.821Z,81.55
2019-03-21T05:04:30.368Z,82.03
2019-03-21T05:05:10.935Z,82.03
2019-03-21T05:05:51.497Z,82.03
2019-03-21T05:06:32.923Z,81.74
2019-03-21T05:07:12.595Z,82.17
2019-03-21T05:07:53.186Z,81.65
2019-03-21T05:08:33.750Z,82.21
2019-03-21T05:09:14.300Z,81.65
2019-03-21T05:09:54.861Z,81.46
2019-03-21T05:10:35.504Z,81.68
2019-03-21T05:11:16.080Z,81.74
2019-03-21T05:11:56.656Z,82.03
2019-03-21T05:12:37.200Z,81.55
2019-03-21T05:13:17.764Z,81.36
2019-03-21T05:13:58.331Z,82.21
2019-03-21T05:14:38.905Z,81.46
2019-03-21T05:15:19.557Z,81.93
2019-03-21T05:16:00.114Z,81.74
2019-03-21T05:16:40.679Z,82.21
2019-03-21T05:17:21.239Z,82.03
2019-03-21T05:18:01.799Z,81.93
2019-03-21T05:18:42.372Z,82.03
2019-03-21T05:19:22.944Z,81.65
2019-03-21T05:20:03.487Z,81.55
2019-03-21T05:20:44.057Z,81.55
2019-03-21T05:21:24.624Z,81.68
2019-03-21T05:22:05.226Z,81.74
2019-03-21T05:22:45.829Z,81.55
2019-03-21T05:23:26.404Z,81.55
2019-03-21T05:24:06.966Z,82.03
2019-03-21T05:24:47.550Z,81.93
2019-03-21T05:25:28.144Z,81.93
2019-03-21T05:26:08.699Z,82.21
2019-03-21T05:26:49.262Z,81.93
2019-03-21T05:27:29.829Z,81.93
2019-03-21T05:28:10.392Z,82.12
2019-03-21T05:28:50.974Z,81.93
2019-03-21T05:29:31.542Z,82.21
2019-03-21T05:30:12.118Z,82.21
2019-03-21T05:30:52.677Z,82.5
2019-03-21T05:31:33.236Z,81.74
2019-03-21T05:32:13.795Z,82.31
2019-03-21T05:32:54.373Z,82.41
2019-03-21T05:33:34.940Z,82.21
2019-03-21T05:34:15.482Z,82.21
2019-03-21T05:34:56.069Z,82.21
2019-03-21T05:35:36.705Z,82.21
2019-03-21T05:36:17.265Z,82.6
2019-03-21T05:36:57.825Z,81.84
2019-03-21T05:37:38.386Z,82.31
2019-03-21T05:38:18.938Z,82.41
2019-03-21T05:38:59.504Z,82.31
2019-03-21T05:39:40.055Z,82.21
2019-03-21T05:40:20.615Z,81.93
2019-03-21T05:41:01.164Z,81.93
2019-03-21T05:41:41.754Z,82.41
2019-03-21T05:42:22.311Z,82.6
2019-03-21T05:43:02.873Z,82.5
2019-03-21T05:43:43.439Z,82.5
2019-03-21T05:44:24.045Z,82.5
2019-03-21T05:45:04.602Z,82.31
2019-03-21T05:45:45.162Z,82.45
2019-03-21T05:46:27.093Z,82.41
2019-03-21T05:47:06.289Z,82.35
2019-03-21T05:47:46.865Z,82.03
2019-03-21T05:48:27.431Z,82.41
2019-03-21T05:49:08.167Z,82.03
2019-03-21T05:49:48.715Z,82.31
2019-03-21T05:50:29.290Z,81.93
2019-03-21T05:51:09.867Z,82.41
2019-03-21T05:51:50.422Z,82.6
2019-03-21T05:52:31.012Z,82.5
2019-03-21T05:53:11.561Z,82.6
2019-03-21T05:53:52.120Z,82.5
2019-03-21T05:54:32.680Z,82.03
2019-03-21T05:55:13.316Z,82.41
2019-03-21T05:55:53.827Z,82.83
2019-03-21T05:56:34.410Z,82.69
2019-03-21T05:57:14.965Z,82.21
2019-03-21T05:57:55.514Z,82.45
2019-03-21T05:58:36.093Z,82.21
2019-03-21T05:59:16.654Z,82.03
2019-03-21T05:59:57.300Z,82.12
2019-03-21T06:00:37.975Z,82.12
2019-03-21T06:01:18.483Z,82.35
2019-03-21T06:01:59.041Z,82.12
2019-03-21T06:02:39.608Z,82.12
2019-03-21T06:03:20.161Z,82.21
2019-03-21T06:04:00.730Z,82.03
2019-03-21T06:04:41.370Z,82.21
2019-03-21T06:05:22.036Z,82.64
2019-03-21T06:06:02.607Z,82.41
2019-03-21T06:06:43.186Z,82.45
2019-03-21T06:07:23.742Z,82.45
2019-03-21T06:08:04.295Z,82.45
2019-03-21T06:08:44.850Z,82.73
2019-03-21T06:09:25.513Z,82.64
2019-03-21T06:10:06.187Z,82.64
2019-03-21T06:10:46.776Z,82.17
2019-03-21T06:11:27.439Z,82.17
2019-03-21T06:12:08.067Z,82.35
2019-03-21T06:12:48.676Z,82.17
2019-03-21T06:13:29.254Z,82.54
2019-03-21T06:14:09.812Z,82.31
2019-03-21T06:14:50.404Z,82.21
2019-03-21T06:15:31.092Z,82.12
2019-03-21T06:16:11.657Z,82.21
2019-03-21T06:16:52.355Z,82.21
2019-03-21T06:17:33.362Z,82.21
2019-03-21T06:18:13.957Z,82.41
2019-03-21T06:18:54.562Z,82.5
2019-03-21T06:19:35.244Z,83.07
2019-03-21T06:20:15.887Z,82.5
2019-03-21T06:20:56.536Z,82.21
2019-03-21T06:21:37.119Z,82.31
2019-03-21T06:22:17.674Z,82.6
2019-03-21T06:22:58.295Z,82.41
2019-03-21T06:23:38.856Z,82.41
2019-03-21T06:24:19.517Z,82.21
2019-03-21T06:25:00.459Z,82.21
2019-03-21T06:25:40.873Z,82.21
2019-03-21T06:26:21.428Z,82.6
2019-03-21T06:27:01.994Z,82.73
2019-03-21T06:27:42.550Z,82.41
2019-03-21T06:28:23.135Z,82.41
2019-03-21T06:29:03.709Z,83.21
2019-03-21T06:29:44.272Z,84.16
2019-03-21T06:30:24.869Z,84.74
2019-03-21T06:31:05.485Z,85.02
2019-03-21T06:31:46.085Z,84.55
2019-03-21T06:32:26.708Z,84.4
2019-03-21T06:33:07.317Z,83.64
2019-03-21T06:33:47.970Z,83.35
2019-03-21T06:34:28.595Z,83.25
2019-03-21T06:35:09.194Z,82.43
2019-03-21T06:35:49.758Z,82.06
2019-03-21T06:36:30.316Z,81.38
2019-03-21T06:37:10.895Z,80.53
2019-03-21T06:37:51.444Z,80.24
2019-03-21T06:38:32.016Z,79.86
2019-03-21T06:39:14.512Z,79.33
2019-03-21T06:39:55.104Z,77.23
2019-03-21T06:40:35.650Z,77.03
2019-03-21T06:41:16.226Z,76.94
2019-03-21T06:41:56.830Z,77.61
2019-03-21T06:42:48.301Z,77.42
2019-03-21T06:45:47.273Z,77.03
2019-03-21T06:46:17.600Z,77.03
2019-03-21T06:46:58.195Z,77.13
2019-03-21T06:47:38.791Z,76.6
2019-03-21T06:48:25.939Z,75.64
2019-03-21T06:49:06.556Z,75.07
2019-03-21T06:53:27.511Z,74.02
2019-03-21T06:54:08.179Z,73.63
2019-03-21T06:54:48.795Z,74.11
2019-03-21T06:55:29.575Z,74.02
2019-03-21T06:56:10.190Z,74.11
2019-03-21T06:56:50.826Z,74.02
2019-03-21T06:57:31.396Z,74.3
2019-03-21T06:58:12.011Z,73.73
2019-03-21T06:58:52.779Z,73.73
2019-03-21T06:59:33.320Z,72.87
2019-03-21T07:00:13.903Z,72.78
2019-03-21T07:00:54.471Z,72.58
2019-03-21T07:01:39.708Z,72.62
2019-03-21T07:02:20.262Z,72.72
2019-03-21T07:03:00.842Z,72.81
2019-03-21T07:03:41.403Z,72.24
2019-03-21T07:04:21.971Z,71.86
2019-03-21T07:05:02.601Z,72.05
2019-03-21T07:05:43.383Z,72.43
2019-03-21T07:06:24.746Z,72.05
2019-03-21T07:07:08.270Z,71.86
2019-03-21T07:07:45.945Z,71.86
2019-03-21T07:08:26.641Z,71.76
2019-03-21T07:09:09.037Z,71.76
2019-03-21T07:09:50.620Z,71.47
2019-03-21T07:10:31.291Z,71.19
2019-03-21T07:11:12.818Z,71.19
2019-03-21T07:13:00.991Z,71.38
2019-03-21T07:13:41.559Z,70.9
2019-03-21T07:14:22.436Z,70.81
2019-03-21T07:15:04.431Z,70.9
2019-03-21T07:17:52.563Z,70.23
2019-03-21T07:20:41.134Z,70.33
2019-03-21T07:21:21.694Z,70.14
2019-03-21T07:22:02.265Z,70.14
2019-03-21T07:22:42.847Z,70.14
2019-03-21T07:23:23.403Z,70.61
2019-03-21T07:24:04.290Z,69.95
2019-03-21T07:24:44.867Z,69.85
2019-03-21T07:25:25.551Z,69.5
2019-03-21T07:26:07.444Z,69.56
2019-03-21T07:26:48.001Z,69.5
2019-03-21T07:27:30.191Z,69.5
2019-03-21T07:28:11.048Z,69.89
2019-03-21T07:28:51.621Z,69.18
2019-03-21T07:29:32.189Z,69.09
2019-03-21T07:30:12.743Z,69.09
2019-03-21T07:30:53.327Z,69.18
2019-03-21T07:31:33.976Z,69.12
2019-03-21T07:32:14.561Z,68.74
2019-03-21T07:32:55.248Z,69.02
2019-03-21T07:33:36.013Z,69.02
2019-03-21T07:34:18.170Z,69.02
2019-03-21T07:34:57.582Z,69.02
2019-03-21T07:35:38.206Z,69.02
2019-03-21T07:36:18.940Z,69.02
2019-03-21T07:36:59.631Z,69.21
2019-03-21T07:37:40.433Z,69.21
2019-03-21T07:38:21.043Z,69.12
2019-03-21T07:39:01.579Z,68.9
2019-03-21T07:39:42.261Z,69.21
2019-03-21T07:40:22.861Z,68.64
2019-03-21T07:41:03.421Z,68.74
2019-03-21T07:41:44.006Z,68.26
2019-03-21T07:42:24.537Z,68.45
2019-03-21T07:43:05.104Z,68.16
2019-03-21T07:43:45.676Z,68.35
2019-03-21T07:44:26.276Z,68.16
2019-03-21T07:45:06.845Z,68.55
2019-03-21T07:45:47.436Z,68.16
2019-03-21T07:46:28.007Z,68.35
2019-03-21T07:47:12.986Z,68.8
2019-03-21T07:47:50.182Z,69.18
2019-03-21T07:50:38.802Z,69.09
2019-03-21T07:51:19.361Z,68.99
2019-03-21T07:51:59.920Z,69.56
2019-03-21T07:52:40.501Z,69.56
2019-03-21T07:53:22.083Z,69.47
2019-03-21T07:54:01.725Z,69.76
2019-03-21T07:54:42.288Z,70.14
2019-03-21T07:55:22.842Z,70.04
2019-03-21T07:56:03.439Z,70.61
2019-03-21T07:56:44.012Z,70.48
2019-03-21T07:57:24.627Z,70.48
2019-03-21T07:58:06.091Z,70.96
2019-03-21T07:58:47.763Z,71.25
2019-03-21T07:59:28.533Z,71.06
2019-03-21T08:00:09.233Z,70.9
2019-03-21T08:00:49.867Z,71.09
2019-03-21T08:01:30.443Z,70.52
2019-03-21T08:02:11.148Z,70.61
2019-03-21T08:02:52.913Z,70.04
2019-03-21T08:03:33.629Z,70.33
2019-03-21T08:04:14.992Z,70.61
2019-03-21T08:04:55.557Z,70.14
2019-03-21T08:05:40.459Z,70.33
2019-03-21T08:06:16.668Z,70.23
2019-03-21T08:06:57.337Z,70.14
2019-03-21T08:07:37.898Z,70.33
2019-03-21T08:08:18.456Z,70.23
2019-03-21T08:08:59.160Z,70.33
2019-03-21T08:09:39.834Z,70.23
2019-03-21T08:10:20.308Z,70.33
2019-03-21T08:11:00.863Z,70.14
2019-03-21T08:11:41.533Z,70.04
2019-03-21T08:12:22.083Z,70.52
2019-03-21T08:13:02.663Z,70.42
2019-03-21T08:13:43.226Z,70.14
2019-03-21T08:14:23.797Z,70.33
2019-03-21T08:15:04.357Z,70.23
2019-03-21T08:15:44.950Z,69.66
2019-03-21T08:16:25.474Z,69.47
2019-03-21T08:17:06.031Z,69.85
2019-03-21T08:17:46.614Z,69.95
2019-03-21T08:18:27.133Z,69.85
2019-03-21T08:19:07.695Z,69.27
2019-03-21T08:19:48.246Z,69.56
2019-03-21T08:20:28.801Z,69.76
2019-03-21T08:21:09.372Z,69.56
2019-03-21T08:21:49.943Z,69.79
2019-03-21T08:22:30.492Z,69.5
2019-03-21T08:23:11.047Z,68.74
2019-03-21T08:23:51.607Z,69.12
2019-03-21T08:24:32.169Z,69.02
2019-03-21T08:25:12.729Z,68.64
2019-03-21T08:25:53.287Z,68.74
2019-03-21T08:26:33.853Z,68.26
2019-03-21T08:27:14.444Z,68.35
2019-03-21T08:27:55.178Z,68.64
2019-03-21T08:28:37.557Z,68.35
2019-03-21T08:29:18.430Z,68.26
2019-03-21T08:29:58.942Z,68.84
2019-03-21T08:30:39.586Z,68.84
2019-03-21T08:31:20.400Z,68.93
2019-03-21T08:32:00.963Z,69.21
2019-03-21T08:32:41.706Z,69.21
2019-03-21T08:33:22.439Z,69.12
2019-03-21T08:34:03.010Z,68.93
2019-03-21T08:34:43.974Z,69.12
2019-03-21T08:35:24.526Z,69.09
2019-03-21T08:36:05.265Z,69.47
2019-03-21T08:36:45.821Z,69.56
2019-03-21T08:37:26.397Z,69.85
2019-03-21T08:38:07.017Z,70.14
2019-03-21T08:38:47.570Z,70.23
2019-03-21T08:39:28.144Z,70.9
2019-03-21T08:40:08.707Z,71.19
2019-03-21T08:40:49.278Z,71.09
2019-03-21T08:41:29.845Z,71.09
2019-03-21T08:42:10.511Z,71.09
2019-03-21T08:42:51.436Z,70.81
2019-03-21T08:43:32.120Z,70.61
2019-03-21T08:44:12.668Z,71.09
2019-03-21T08:44:53.391Z,70.52
2019-03-21T08:45:34.184Z,70.61
2019-03-21T08:46:15.145Z,70.33
2019-03-21T08:46:56.118Z,70.23
2019-03-21T08:47:37.115Z,70.14
2019-03-21T08:48:17.343Z,70.52
2019-03-21T08:48:58.249Z,70.9
2019-03-21T08:49:38.854Z,70.9
2019-03-21T08:50:19.466Z,70.42
2019-03-21T08:51:07.984Z,70.23
2019-03-21T08:51:40.583Z,70.42
2019-03-21T08:52:21.195Z,71
2019-03-21T08:53:01.751Z,70.52
2019-03-21T08:53:42.317Z,70.14
2019-03-21T08:54:22.886Z,70.81
2019-03-21T08:55:03.492Z,71.09
2019-03-21T08:55:44.053Z,71.09
2019-03-21T08:56:24.632Z,71.28
2019-03-21T08:57:05.200Z,71.09
2019-03-21T08:57:45.781Z,71.57
2019-03-21T08:58:26.356Z,71.72